createdAt,value
2022-10-25T00:04:12.300Z,90.98
2022-10-25T00:09:26.732Z,91.03
2022-10-25T00:19:58.817Z,90.73
2022-10-25T00:25:07.033Z,90.53
2022-10-25T00:30:15.130Z,90.21
2022-10-25T00:35:24.142Z,90.39
2022-10-25T00:46:05.171Z,91.18
2022-10-25T00:51:09.452Z,91.26
2022-10-25T00:56:26.304Z,91.37
2022-10-25T01:01:51.764Z,91.74
2022-10-25T01:07:18.048Z,92.19
2022-10-25T01:12:29.097Z,92.29
2022-10-25T01:18:22.249Z,92.28
2022-10-25T01:24:06.458Z,92.19
2022-10-25T01:29:15.470Z,92.21
2022-10-25T01:35:01.173Z,92.35
2022-10-25T01:40:55.869Z,92.94
2022-10-25T01:46:54.668Z,93.34
2022-10-25T01:52:03.105Z,93.17
2022-10-25T01:57:12.952Z,93.02
2022-10-25T02:02:36.707Z,92.93
2022-10-25T02:08:02.242Z,92.95
2022-10-25T02:13:53.768Z,93.08
2022-10-25T02:19:04.266Z,92.98
2022-10-25T02:24:18.794Z,93.05
2022-10-25T02:29:33.725Z,93.20
2022-10-25T02:34:45.800Z,93.37
2022-10-25T02:40:07.457Z,93.42
2022-10-25T02:45:35.798Z,93.40
2022-10-25T02:50:59.183Z,93.33
2022-10-25T03:01:33.646Z,93.24
2022-10-25T03:06:49.162Z,93.26
2022-10-25T03:11:56.001Z,93.24
2022-10-25T03:17:02.748Z,93.27
2022-10-25T03:22:12.024Z,93.45
2022-10-25T03:27:24.051Z,93.43
2022-10-25T03:38:03.966Z,92.97
2022-10-25T03:43:15.295Z,92.78
2022-10-25T03:48:37.953Z,92.96
2022-10-25T03:53:48.109Z,93.16
2022-10-25T03:58:55.669Z,93.32
2022-10-25T04:04:12.131Z,93.42
2022-10-25T04:09:32.967Z,93.40
2022-10-25T04:14:49.474Z,93.25
2022-10-25T04:20:03.353Z,93.13
2022-10-25T04:25:19.973Z,93.03
2022-10-25T04:30:28.081Z,92.94
2022-10-25T04:35:34.249Z,92.97
2022-10-25T04:40:37.839Z,92.91
2022-10-25T04:45:41.922Z,92.78
2022-10-25T04:50:46.674Z,92.46
2022-10-25T04:56:13.613Z,92.08
2022-10-25T05:01:23.570Z,92.36
2022-10-25T05:06:34.922Z,92.62
2022-10-25T05:11:45.121Z,93.05
2022-10-25T05:17:03.299Z,93.21
2022-10-25T05:22:12.787Z,93.34
2022-10-25T05:27:26.268Z,93.35
2022-10-25T05:32:34.775Z,93.35
2022-10-25T05:37:45.369Z,93.38
2022-10-25T05:42:58.271Z,93.29
2022-10-25T05:48:05.129Z,93.36
2022-10-25T05:53:09.353Z,93.54
2022-10-25T05:58:13.158Z,93.50
2022-10-25T06:03:16.493Z,93.45
2022-10-25T06:08:19.876Z,93.34
2022-10-25T06:13:23.428Z,93.32
2022-10-25T06:18:27.455Z,93.47
2022-10-25T06:23:32.083Z,93.53
2022-10-25T06:28:35.922Z,93.67
2022-10-25T06:33:39.699Z,93.70
2022-10-25T06:38:48.560Z,93.75
2022-10-25T06:43:52.153Z,93.79
2022-10-25T06:48:57.038Z,93.87
2022-10-25T06:54:08.356Z,93.75
2022-10-25T06:59:13.516Z,93.67
2022-10-25T07:04:17.119Z,93.67
2022-10-25T07:09:20.361Z,93.70
2022-10-25T07:14:23.735Z,93.67
2022-10-25T07:19:27.036Z,92.16
2022-10-25T07:24:30.304Z,92.77
2022-10-25T07:29:33.530Z,92.83
2022-10-25T07:34:37.001Z,92.42
2022-10-25T07:39:40.812Z,91.85
2022-10-25T07:44:44.082Z,90.42
2022-10-25T07:49:48.933Z,89.62
2022-10-25T07:54:52.129Z,88.75
2022-10-25T07:59:56.655Z,87.36
2022-10-25T08:05:00.425Z,86.58
2022-10-25T08:10:04.062Z,86.94
2022-10-25T08:15:10.811Z,86.17
2022-10-25T08:20:14.361Z,85.77
2022-10-25T08:25:17.912Z,84.42
2022-10-25T08:30:21.413Z,83.64
2022-10-25T08:35:24.670Z,82.42
2022-10-25T08:40:57.374Z,81.63
2022-10-25T08:46:08.232Z,82.41
2022-10-25T08:51:33.123Z,81.58
2022-10-25T08:56:42.556Z,81.43
2022-10-25T09:01:57.870Z,79.15
2022-10-25T09:07:40.631Z,77.65
2022-10-25T09:13:08.480Z,76.18
2022-10-25T09:18:18.047Z,76.51
2022-10-25T09:23:24.513Z,74.10
2022-10-25T09:28:52.553Z,73.70
2022-10-25T09:34:04.617Z,73.33
2022-10-25T09:39:36.139Z,73.54
2022-10-25T09:44:47.342Z,73.52
2022-10-25T09:49:58.988Z,73.16
2022-10-25T09:55:08.734Z,73.22
2022-10-25T10:00:15.904Z,72.70
2022-10-25T10:05:20.944Z,71.55
2022-10-25T10:10:32.819Z,71.03
2022-10-25T10:16:00.987Z,71.68
2022-10-25T10:21:18.733Z,72.29
2022-10-25T10:26:44.632Z,71.83
2022-10-25T10:31:51.189Z,71.54
2022-10-25T10:37:13.018Z,71.74
2022-10-25T10:42:19.465Z,71.77
2022-10-25T10:47:22.653Z,71.33
2022-10-25T10:52:32.876Z,71.58
2022-10-25T10:57:36.835Z,71.78
2022-10-25T11:02:41.467Z,70.20
2022-10-25T11:07:45.085Z,69.84
2022-10-25T11:13:07.656Z,70.57
2022-10-25T11:18:11.571Z,71.20
2022-10-25T11:23:23.910Z,70.98
2022-10-25T11:28:48.486Z,70.43
2022-10-25T11:34:00.880Z,70.66
2022-10-25T11:39:03.987Z,70.19
2022-10-25T11:44:46.413Z,69.50
2022-10-25T11:50:14.757Z,68.68
2022-10-25T11:55:41.076Z,68.02
2022-10-25T12:01:06.739Z,67.65
2022-10-25T12:06:13.148Z,67.82
2022-10-25T12:11:23.961Z,66.18
2022-10-25T12:16:28.991Z,66.02
2022-10-25T12:21:42.349Z,64.85
2022-10-25T12:26:46.326Z,63.41
2022-10-25T12:31:54.648Z,62.86
2022-10-25T12:37:04.341Z,64.16
2022-10-25T12:42:35.118Z,62.44
2022-10-25T12:48:01.466Z,62.28
2022-10-25T12:53:24.692Z,61.87
2022-10-25T12:58:59.093Z,62.61
2022-10-25T13:04:38.259Z,62.39
2022-10-25T13:09:42.093Z,62.28
2022-10-25T13:14:52.938Z,62.13
2022-10-25T13:20:23.806Z,62.91
2022-10-25T13:25:34.343Z,63.59
2022-10-25T13:30:40.037Z,63.56
2022-10-25T13:35:44.416Z,63.98
2022-10-25T13:41:15.677Z,64.75
2022-10-25T13:46:31.575Z,65.28
2022-10-25T13:51:43.777Z,65.81
2022-10-25T13:56:54.937Z,66.15
2022-10-25T14:02:08.791Z,66.75
2022-10-25T14:07:46.878Z,67.09
2022-10-25T14:12:53.715Z,67.52
2022-10-25T14:17:59.065Z,67.76
2022-10-25T14:23:04.029Z,68.13
2022-10-25T14:28:15.187Z,68.61
2022-10-25T14:33:50.688Z,68.88
2022-10-25T14:38:56.675Z,69.64
2022-10-25T14:44:00.262Z,69.60
2022-10-25T14:49:21.940Z,69.94
2022-10-25T14:54:31.600Z,70.15
2022-10-25T14:59:47.505Z,69.99
2022-10-25T15:04:54.398Z,70.19
2022-10-25T15:15:40.850Z,71.20
2022-10-25T15:20:44.256Z,71.45
2022-10-25T15:25:47.738Z,71.31
2022-10-25T15:35:22.202Z,71.57
2022-10-25T15:40:28.403Z,72.39
2022-10-25T15:46:01.106Z,72.93
2022-10-25T15:51:33.796Z,73.48
2022-10-25T15:56:47.816Z,73.47
2022-10-25T16:01:55.399Z,74.42
2022-10-25T16:07:01.664Z,75.41
2022-10-25T16:12:33.667Z,76.16
2022-10-25T16:17:47.875Z,77.02
2022-10-25T16:23:04.287Z,77.13
2022-10-25T16:28:35.371Z,77.44
2022-10-25T16:33:55.119Z,77.48
2022-10-25T16:39:04.027Z,77.45
2022-10-25T16:44:20.695Z,78.42
2022-10-25T16:49:54.533Z,78.63
2022-10-25T17:00:43.366Z,80.58
2022-10-25T17:05:47.096Z,80.57
2022-10-25T17:10:58.019Z,80.33
2022-10-25T17:16:11.503Z,80.43
2022-10-25T17:21:16.866Z,80.40
2022-10-25T17:26:21.017Z,80.16
2022-10-25T17:31:25.103Z,79.67
2022-10-25T17:36:31.933Z,80.05
2022-10-25T17:41:45.997Z,79.44
2022-10-25T17:46:58.519Z,79.87
2022-10-25T17:52:07.609Z,81.11
2022-10-25T17:57:14.090Z,81.73
2022-10-25T18:02:19.767Z,81.92
2022-10-25T18:07:23.017Z,82.26
2022-10-25T18:12:28.114Z,82.47
2022-10-25T18:17:35.119Z,82.57
2022-10-25T18:22:38.935Z,81.05
2022-10-25T18:27:43.706Z,81.53
2022-10-25T18:32:52.916Z,82.19
2022-10-25T18:38:04.737Z,82.57
2022-10-25T18:43:12.089Z,82.71
2022-10-25T18:48:15.303Z,81.84
2022-10-25T18:53:21.806Z,82.10
2022-10-25T18:58:25.005Z,81.91
2022-10-25T19:03:39.240Z,82.33
2022-10-25T19:08:43.444Z,82.19
2022-10-25T19:13:50.578Z,82.40
2022-10-25T19:18:55.089Z,82.77
2022-10-25T19:24:02.449Z,82.70
2022-10-25T19:29:07.151Z,82.90
2022-10-25T19:34:11.110Z,83.61
2022-10-25T19:39:18.428Z,83.66
2022-10-25T19:44:23.296Z,83.74
2022-10-25T19:49:32.157Z,83.79
2022-10-25T19:54:48.365Z,83.49
2022-10-25T19:59:55.973Z,83.64
2022-10-25T20:05:03.698Z,84.03
2022-10-25T20:10:08.178Z,84.40
2022-10-25T20:15:19.649Z,84.92
2022-10-25T20:20:31.293Z,85.41
2022-10-25T20:25:40.122Z,85.09
2022-10-25T20:30:47.628Z,85.07
2022-10-25T20:35:51.636Z,85.64
2022-10-25T20:40:57.535Z,85.89
2022-10-25T20:46:06.631Z,86.15
2022-10-25T20:51:23.945Z,86.51
2022-10-25T20:56:34.975Z,86.61
2022-10-25T21:01:49.894Z,86.78
2022-10-25T21:06:54.619Z,86.25
2022-10-25T21:12:02.374Z,85.84
2022-10-25T21:17:05.886Z,85.67
2022-10-25T21:22:17.837Z,86.51
2022-10-25T21:27:39.254Z,87.03
2022-10-25T21:32:49.952Z,86.77
2022-10-25T21:37:53.562Z,87.48
2022-10-25T21:43:23.511Z,88.20
2022-10-25T21:48:30.259Z,88.31
2022-10-25T21:53:37.520Z,88.39
2022-10-25T21:58:49.602Z,88.51
2022-10-25T22:03:58.951Z,88.77
2022-10-25T22:09:04.170Z,88.68
2022-10-25T22:14:13.837Z,88.57
2022-10-25T22:19:20.137Z,88.69
2022-10-25T22:24:23.556Z,88.84
2022-10-25T22:29:27.399Z,88.84
2022-10-25T22:34:31.875Z,89.17
2022-10-25T22:39:36.695Z,89.22
2022-10-25T22:44:40.150Z,89.30
2022-10-25T22:49:43.370Z,89.29
2022-10-25T22:54:47.575Z,88.91
2022-10-25T22:59:50.862Z,89.03
2022-10-25T23:04:53.977Z,88.96
2022-10-25T23:09:57.110Z,89.26
2022-10-25T23:15:00.080Z,89.47
2022-10-25T23:20:03.399Z,89.13
2022-10-25T23:25:07.551Z,89.63
2022-10-25T23:30:13.318Z,89.81
2022-10-25T23:35:16.953Z,90.07
2022-10-25T23:40:20.260Z,90.21
2022-10-25T23:45:23.907Z,90.09
2022-10-25T23:50:28.283Z,90.35
2022-10-25T23:55:31.554Z,91.27
